createdAt,value
2023-05-15T00:01:59.904Z,46.22
2023-05-15T00:04:27.055Z,46.46
2023-05-15T00:06:53.620Z,46.28
2023-05-15T00:09:20.182Z,46.49
2023-05-15T00:11:46.730Z,46.47
2023-05-15T00:14:13.185Z,46.36
2023-05-15T00:16:39.880Z,46.57
2023-05-15T00:19:06.621Z,46.26
2023-05-15T00:21:33.141Z,46.64
2023-05-15T00:23:59.582Z,46.39
2023-05-15T00:26:26.142Z,46.72
2023-05-15T00:28:52.658Z,46.65
2023-05-15T00:31:19.506Z,46.57
2023-05-15T00:33:45.933Z,46.68
2023-05-15T00:36:12.410Z,46.89
2023-05-15T00:38:38.950Z,46.54
2023-05-15T00:41:07.051Z,46.60
2023-05-15T00:43:34.843Z,46.72
2023-05-15T00:46:02.362Z,46.92
2023-05-15T00:48:29.198Z,46.91
2023-05-15T00:50:57.756Z,46.97
2023-05-15T00:53:24.505Z,47.07
2023-05-15T00:55:52.874Z,47.16
2023-05-15T00:58:21.406Z,47.12
2023-05-15T01:00:51.112Z,47.14
2023-05-15T01:03:17.644Z,47.07
2023-05-15T01:05:45.064Z,47.20
2023-05-15T01:08:26.766Z,47.16
2023-05-15T01:10:54.299Z,47.00
2023-05-15T01:13:22.311Z,47.30
2023-05-15T01:15:49.798Z,47.14
2023-05-15T01:18:17.025Z,47.28
2023-05-15T01:21:02.547Z,47.29
2023-05-15T01:23:44.041Z,47.06
2023-05-15T01:26:24.263Z,47.20
2023-05-15T01:29:22.547Z,47.43
2023-05-15T01:31:58.560Z,47.39
2023-05-15T01:34:34.072Z,47.49
2023-05-15T01:37:04.270Z,47.51
2023-05-15T01:39:33.757Z,47.49
2023-05-15T01:42:08.326Z,47.73
2023-05-15T01:44:38.079Z,47.64
2023-05-15T01:47:14.311Z,47.56
2023-05-15T01:49:44.777Z,47.52
2023-05-15T01:52:18.701Z,47.88
2023-05-15T01:54:46.639Z,47.97
2023-05-15T01:57:14.623Z,48.02
2023-05-15T01:59:42.553Z,48.14
2023-05-15T02:02:10.531Z,48.17
2023-05-15T02:04:38.531Z,48.09
2023-05-15T02:07:06.487Z,48.10
2023-05-15T02:09:35.108Z,48.02
2023-05-15T02:12:02.769Z,47.94
2023-05-15T02:14:29.850Z,48.20
2023-05-15T02:16:56.581Z,48.22
2023-05-15T02:19:23.260Z,48.25
2023-05-15T02:21:49.724Z,48.14
2023-05-15T02:24:16.191Z,48.29
2023-05-15T02:26:57.857Z,48.06
2023-05-15T02:29:27.150Z,48.32
2023-05-15T02:32:06.116Z,48.30
2023-05-15T02:35:07.835Z,48.24
2023-05-15T02:37:38.153Z,48.39
2023-05-15T02:40:07.616Z,48.50
2023-05-15T02:42:35.754Z,48.40
2023-05-15T02:45:03.058Z,48.52
2023-05-15T02:47:30.767Z,48.30
2023-05-15T02:49:57.561Z,48.68
2023-05-15T02:52:24.933Z,48.82
2023-05-15T02:54:51.521Z,48.57
2023-05-15T02:57:17.963Z,48.65
2023-05-15T02:59:44.636Z,48.62
2023-05-15T03:02:11.051Z,48.83
2023-05-15T03:04:37.737Z,48.90
2023-05-15T03:07:04.414Z,48.94
2023-05-15T03:09:30.832Z,48.87
2023-05-15T03:11:57.345Z,48.93
2023-05-15T03:14:23.820Z,48.95
2023-05-15T03:16:50.261Z,49.08
2023-05-15T03:19:16.985Z,49.14
2023-05-15T03:21:43.503Z,49.10
2023-05-15T03:24:09.968Z,48.98
2023-05-15T03:26:36.556Z,49.09
2023-05-15T03:29:03.054Z,49.16
2023-05-15T03:31:29.648Z,49.29
2023-05-15T03:33:56.171Z,49.33
2023-05-15T03:36:22.682Z,49.35
2023-05-15T03:38:49.371Z,49.21
2023-05-15T03:41:15.822Z,49.36
2023-05-15T03:43:42.321Z,49.33
2023-05-15T03:46:08.784Z,49.55
2023-05-15T03:48:35.277Z,49.56
2023-05-15T03:51:05.740Z,49.60
2023-05-15T03:53:32.210Z,49.52
2023-05-15T03:55:58.634Z,49.59
2023-05-15T03:58:26.455Z,49.71
2023-05-15T04:00:52.875Z,49.77
2023-05-15T04:03:19.853Z,49.74
2023-05-15T04:05:49.857Z,49.79
2023-05-15T04:08:16.574Z,49.86
2023-05-15T04:10:42.994Z,49.89
2023-05-15T04:13:09.433Z,50.04
2023-05-15T04:15:36.065Z,50.05
2023-05-15T04:18:02.533Z,50.03
2023-05-15T04:20:29.062Z,50.10
2023-05-15T04:22:55.470Z,50.08
2023-05-15T04:25:22.030Z,49.97
2023-05-15T04:27:49.243Z,50.12
2023-05-15T04:30:16.140Z,50.03
2023-05-15T04:32:42.989Z,50.33
2023-05-15T04:35:11.872Z,50.13
2023-05-15T04:37:39.855Z,50.27
2023-05-15T04:40:08.095Z,50.31
2023-05-15T04:42:35.723Z,50.61
2023-05-15T04:45:02.993Z,50.26
2023-05-15T04:47:29.498Z,50.30
2023-05-15T04:49:56.133Z,50.25
2023-05-15T04:52:22.558Z,50.32
2023-05-15T04:54:50.967Z,50.36
2023-05-15T04:57:17.491Z,50.46
2023-05-15T04:59:43.927Z,50.56
2023-05-15T05:02:10.559Z,50.63
2023-05-15T05:04:37.366Z,50.64
2023-05-15T05:07:05.740Z,50.62
2023-05-15T05:09:32.148Z,50.57
2023-05-15T05:12:04.621Z,50.48
2023-05-15T05:14:31.715Z,50.83
2023-05-15T05:16:58.138Z,50.74
2023-05-15T05:19:24.709Z,50.77
2023-05-15T05:21:51.176Z,50.94
2023-05-15T05:24:17.632Z,50.89
2023-05-15T05:26:44.878Z,51.00
2023-05-15T05:29:11.340Z,50.82
2023-05-15T05:31:37.870Z,50.84
2023-05-15T05:34:04.498Z,51.18
2023-05-15T05:36:31.009Z,50.76
2023-05-15T05:38:57.421Z,50.88
2023-05-15T05:41:23.853Z,50.99
2023-05-15T05:43:50.240Z,51.11
2023-05-15T05:46:16.658Z,51.01
2023-05-15T05:48:43.098Z,51.25
2023-05-15T05:51:09.508Z,51.34
2023-05-15T05:53:37.512Z,51.47
2023-05-15T05:56:04.793Z,51.65
2023-05-15T05:58:31.306Z,51.69
2023-05-15T06:00:58.236Z,51.52
2023-05-15T06:03:24.775Z,51.43
2023-05-15T06:05:51.448Z,51.78
2023-05-15T06:08:18.343Z,51.89
2023-05-15T06:10:44.719Z,51.84
2023-05-15T06:13:12.557Z,51.62
2023-05-15T06:15:38.956Z,51.79
2023-05-15T06:18:06.077Z,51.87
2023-05-15T06:20:32.725Z,52.04
2023-05-15T06:22:59.106Z,52.01
2023-05-15T06:25:25.869Z,52.14
2023-05-15T06:27:52.295Z,52.20
2023-05-15T06:30:18.835Z,51.93
2023-05-15T06:32:45.862Z,51.82
2023-05-15T06:35:12.404Z,52.23
2023-05-15T06:37:38.991Z,52.26
2023-05-15T06:40:06.120Z,52.50
2023-05-15T06:42:32.893Z,52.31
2023-05-15T06:45:00.658Z,52.43
2023-05-15T06:47:27.220Z,52.33
2023-05-15T06:49:55.315Z,52.46
2023-05-15T06:52:21.710Z,52.15
2023-05-15T06:54:48.413Z,52.00
2023-05-15T06:57:15.322Z,52.05
2023-05-15T06:59:41.745Z,52.07
2023-05-15T07:02:08.302Z,51.91
2023-05-15T07:04:35.023Z,51.85
2023-05-15T07:07:01.492Z,51.99
2023-05-15T07:09:27.930Z,51.73
2023-05-15T07:11:54.327Z,51.69
2023-05-15T07:14:20.745Z,51.63
2023-05-15T07:16:47.209Z,51.44
2023-05-15T07:19:13.682Z,51.27
2023-05-15T07:21:40.674Z,51.35
2023-05-15T07:24:07.460Z,51.33
2023-05-15T07:26:43.525Z,51.38
2023-05-15T07:29:16.978Z,51.29
2023-05-15T07:31:44.719Z,51.24
2023-05-15T07:34:11.789Z,51.17
2023-05-15T07:36:38.237Z,51.05
2023-05-15T07:39:04.635Z,51.10
2023-05-15T07:41:33.272Z,51.25
2023-05-15T07:43:59.697Z,51.10
2023-05-15T07:46:26.911Z,50.94
2023-05-15T07:48:53.404Z,50.84
2023-05-15T07:51:19.813Z,50.68
2023-05-15T07:53:46.310Z,50.21
2023-05-15T07:56:12.709Z,50.09
2023-05-15T07:58:40.240Z,49.86
2023-05-15T08:01:07.487Z,49.83
2023-05-15T08:03:34.032Z,48.93
2023-05-15T08:06:00.767Z,48.72
2023-05-15T08:08:27.200Z,48.43
2023-05-15T08:10:53.675Z,48.52
2023-05-15T08:13:20.065Z,48.60
2023-05-15T08:15:46.567Z,48.78
2023-05-15T08:18:13.067Z,47.84
2023-05-15T08:20:39.621Z,47.19
2023-05-15T08:23:06.157Z,47.32
2023-05-15T08:25:33.041Z,47.39
2023-05-15T08:27:59.459Z,47.47
2023-05-15T08:30:25.947Z,47.74
2023-05-15T08:32:52.411Z,47.51
2023-05-15T08:35:18.906Z,47.78
2023-05-15T08:37:45.347Z,47.66
2023-05-15T08:40:12.428Z,46.92
2023-05-15T08:42:53.496Z,46.60
2023-05-15T08:45:20.480Z,46.16
2023-05-15T08:47:47.064Z,45.97
2023-05-15T08:50:15.557Z,46.35
2023-05-15T08:52:44.067Z,46.57
2023-05-15T08:55:11.141Z,46.57
2023-05-15T08:57:38.819Z,46.48
2023-05-15T09:00:09.180Z,46.48
2023-05-15T09:02:37.427Z,46.48
2023-05-15T09:05:05.330Z,46.51
2023-05-15T09:07:32.574Z,46.50
2023-05-15T09:10:01.249Z,46.40
2023-05-15T09:12:28.209Z,46.43
2023-05-15T09:15:14.425Z,46.52
2023-05-15T09:17:42.559Z,46.29
2023-05-15T09:20:36.257Z,46.06
2023-05-15T09:23:04.578Z,46.56
2023-05-15T09:25:42.483Z,46.27
2023-05-15T09:28:24.593Z,45.90
2023-05-15T09:30:57.510Z,45.42
2023-05-15T09:33:32.625Z,45.70
2023-05-15T09:35:59.397Z,45.51
2023-05-15T09:38:25.904Z,45.38
2023-05-15T09:41:02.662Z,44.81
2023-05-15T09:43:29.952Z,45.31
2023-05-15T09:45:56.486Z,44.99
2023-05-15T09:48:23.227Z,45.09
2023-05-15T09:50:49.812Z,45.49
2023-05-15T09:53:21.377Z,45.60
2023-05-15T09:55:49.166Z,44.83
2023-05-15T09:58:17.756Z,44.29
2023-05-15T10:00:47.632Z,44.13
2023-05-15T10:03:16.697Z,44.42
2023-05-15T10:05:44.334Z,44.66
2023-05-15T10:08:12.445Z,44.73
2023-05-15T10:10:38.936Z,44.69
2023-05-15T10:13:08.061Z,44.66
2023-05-15T10:15:35.132Z,44.49
2023-05-15T10:18:04.809Z,43.95
2023-05-15T10:20:33.328Z,43.89
2023-05-15T10:23:01.721Z,44.02
2023-05-15T10:25:52.452Z,43.27
2023-05-15T10:28:19.726Z,42.95
2023-05-15T10:30:47.537Z,43.10
2023-05-15T10:33:15.330Z,43.33
2023-05-15T10:35:42.640Z,43.31
2023-05-15T10:38:11.355Z,43.03
2023-05-15T10:40:40.478Z,42.68
2023-05-15T10:43:10.124Z,42.40
2023-05-15T10:45:36.898Z,42.43
2023-05-15T10:48:06.066Z,42.45
2023-05-15T10:50:32.612Z,42.33
2023-05-15T10:52:59.959Z,43.25
2023-05-15T10:55:26.414Z,42.99
2023-05-15T10:57:53.587Z,41.89
2023-05-15T11:00:22.778Z,42.15
2023-05-15T11:02:53.519Z,42.54
2023-05-15T11:05:20.276Z,42.33
2023-05-15T11:08:15.552Z,42.23
2023-05-15T11:10:42.421Z,42.54
2023-05-15T11:13:08.955Z,42.70
2023-05-15T11:15:46.248Z,42.79
2023-05-15T11:18:13.140Z,42.71
2023-05-15T11:21:02.309Z,40.13
2023-05-15T11:23:29.113Z,40.83
2023-05-15T11:25:58.865Z,40.83
2023-05-15T11:28:29.217Z,40.55
2023-05-15T11:31:08.014Z,39.83
2023-05-15T11:33:34.529Z,40.91
2023-05-15T11:36:01.555Z,41.15
2023-05-15T11:38:28.309Z,41.05
2023-05-15T11:41:03.868Z,41.29
2023-05-15T11:43:37.505Z,41.52
2023-05-15T11:46:05.593Z,41.86
2023-05-15T11:48:47.692Z,41.09
2023-05-15T11:51:19.306Z,41.32
2023-05-15T11:53:46.464Z,41.14
2023-05-15T11:56:28.060Z,41.31
2023-05-15T11:58:56.987Z,41.50
2023-05-15T12:01:23.832Z,41.61
2023-05-15T12:03:51.711Z,41.69
2023-05-15T12:06:18.562Z,41.52
2023-05-15T12:08:51.636Z,41.95
2023-05-15T12:11:21.932Z,41.43
2023-05-15T12:13:52.547Z,41.50
2023-05-15T12:16:24.701Z,41.30
2023-05-15T12:18:51.332Z,41.59
2023-05-15T12:21:18.038Z,41.65
2023-05-15T12:24:03.570Z,41.51
2023-05-15T12:26:33.841Z,41.48
2023-05-15T12:29:00.391Z,41.70
2023-05-15T12:31:26.956Z,41.70
2023-05-15T12:33:53.497Z,41.66
2023-05-15T12:36:20.867Z,41.88
2023-05-15T12:38:48.262Z,41.78
2023-05-15T12:41:14.881Z,42.03
2023-05-15T12:43:41.364Z,42.13
2023-05-15T12:46:07.957Z,42.31
2023-05-15T12:48:36.177Z,41.69
2023-05-15T12:51:07.458Z,42.03
2023-05-15T12:53:34.441Z,41.98
2023-05-15T12:56:01.267Z,41.96
2023-05-15T12:58:27.995Z,41.54
2023-05-15T13:00:54.825Z,41.07
2023-05-15T13:03:22.122Z,41.24
2023-05-15T13:05:48.731Z,41.16
2023-05-15T13:08:17.365Z,41.10
2023-05-15T13:10:44.984Z,40.87
2023-05-15T13:13:11.522Z,40.99
2023-05-15T13:15:43.837Z,40.68
2023-05-15T13:18:12.566Z,40.54
2023-05-15T13:20:41.885Z,40.62
2023-05-15T13:23:09.638Z,40.69
2023-05-15T13:25:36.194Z,40.57
2023-05-15T13:28:05.206Z,41.04
2023-05-15T13:30:35.296Z,40.85
2023-05-15T13:33:02.860Z,40.83
2023-05-15T13:35:29.425Z,41.23
2023-05-15T13:37:56.752Z,40.95
2023-05-15T13:40:23.865Z,40.84
2023-05-15T13:42:50.627Z,40.84
2023-05-15T13:45:17.116Z,40.71
2023-05-15T13:47:43.955Z,40.49
2023-05-15T13:50:14.812Z,41.13
2023-05-15T13:52:42.883Z,40.73
2023-05-15T13:55:10.120Z,41.08
2023-05-15T13:57:37.883Z,40.96
2023-05-15T14:00:12.826Z,41.44
2023-05-15T14:02:40.348Z,41.26
2023-05-15T14:05:07.900Z,41.70
2023-05-15T14:07:34.318Z,41.85
2023-05-15T14:10:00.734Z,41.98
2023-05-15T14:12:27.217Z,42.06
2023-05-15T14:14:53.629Z,42.05
2023-05-15T14:17:20.129Z,42.14
2023-05-15T14:19:54.647Z,41.87
2023-05-15T14:22:24.558Z,41.69
2023-05-15T14:24:52.201Z,41.92
2023-05-15T14:27:18.626Z,41.50
2023-05-15T14:29:45.250Z,41.50
2023-05-15T14:32:11.885Z,41.76
2023-05-15T14:34:38.365Z,42.33
2023-05-15T14:37:04.983Z,42.03
2023-05-15T14:39:31.734Z,42.37
2023-05-15T14:41:58.203Z,42.41
2023-05-15T14:44:24.850Z,42.22
2023-05-15T14:47:12.599Z,42.20
2023-05-15T14:49:39.843Z,42.23
2023-05-15T14:52:09.063Z,42.68
2023-05-15T14:54:36.054Z,42.70
2023-05-15T14:57:02.581Z,43.25
2023-05-15T14:59:29.055Z,43.12
2023-05-15T15:01:55.674Z,43.13
2023-05-15T15:04:22.134Z,43.30
2023-05-15T15:06:48.717Z,43.35
2023-05-15T15:09:15.359Z,43.36
2023-05-15T15:11:41.886Z,43.49
2023-05-15T15:14:08.379Z,43.48
2023-05-15T15:16:35.015Z,43.28
2023-05-15T15:19:01.538Z,42.86
2023-05-15T15:21:27.956Z,42.88
2023-05-15T15:23:55.134Z,42.97
2023-05-15T15:26:21.756Z,43.31
2023-05-15T15:28:48.419Z,44.26
2023-05-15T15:31:15.623Z,44.25
2023-05-15T15:33:42.146Z,44.54
2023-05-15T15:36:08.690Z,44.78
2023-05-15T15:38:35.869Z,44.91
2023-05-15T15:41:03.568Z,45.00
2023-05-15T15:43:30.003Z,45.37
2023-05-15T15:45:56.495Z,45.29
2023-05-15T15:48:23.599Z,45.44
2023-05-15T15:50:51.697Z,45.44
2023-05-15T15:53:18.107Z,45.60
2023-05-15T15:55:46.368Z,45.86
2023-05-15T15:58:13.609Z,46.13
2023-05-15T16:00:41.157Z,46.14
2023-05-15T16:03:07.907Z,46.46
2023-05-15T16:05:34.518Z,46.14
2023-05-15T16:08:00.926Z,46.12
2023-05-15T16:10:27.466Z,46.18
2023-05-15T16:12:54.024Z,45.98
2023-05-15T16:15:23.248Z,46.20
2023-05-15T16:17:53.482Z,46.32
2023-05-15T16:20:20.871Z,46.30
2023-05-15T16:22:47.259Z,46.10
2023-05-15T16:25:13.677Z,46.12
2023-05-15T16:27:40.103Z,46.06
2023-05-15T16:30:07.293Z,45.94
2023-05-15T16:32:34.051Z,45.99
2023-05-15T16:35:00.805Z,45.69
2023-05-15T16:37:27.367Z,45.46
2023-05-15T16:39:53.786Z,45.51
2023-05-15T16:42:20.293Z,45.47
2023-05-15T16:44:46.918Z,45.49
2023-05-15T16:47:13.404Z,45.15
2023-05-15T16:49:41.402Z,45.20
2023-05-15T16:52:09.894Z,45.20
2023-05-15T16:54:36.412Z,45.44
2023-05-15T16:57:02.885Z,45.51
2023-05-15T16:59:29.322Z,45.46
2023-05-15T17:01:55.796Z,45.49
2023-05-15T17:04:22.323Z,45.56
2023-05-15T17:06:48.769Z,45.37
2023-05-15T17:09:15.830Z,45.28
2023-05-15T17:11:42.397Z,45.44
2023-05-15T17:14:09.053Z,45.54
2023-05-15T17:16:36.128Z,45.57
2023-05-15T17:19:02.766Z,45.83
2023-05-15T17:21:29.240Z,45.84
2023-05-15T17:23:56.279Z,46.51
2023-05-15T17:26:23.628Z,45.74
2023-05-15T17:28:50.162Z,46.04
2023-05-15T17:31:16.843Z,45.83
2023-05-15T17:33:43.642Z,46.01
2023-05-15T17:36:10.383Z,46.04
2023-05-15T17:38:36.946Z,45.94
2023-05-15T17:41:03.423Z,46.09
2023-05-15T17:43:30.056Z,46.18
2023-05-15T17:45:57.407Z,46.24
2023-05-15T17:48:23.919Z,46.46
2023-05-15T17:50:50.893Z,46.11
2023-05-15T17:53:17.769Z,46.64
2023-05-15T17:55:44.530Z,46.51
2023-05-15T17:58:11.553Z,46.44
2023-05-15T18:00:38.387Z,46.48
2023-05-15T18:03:05.125Z,46.45
2023-05-15T18:05:31.795Z,46.81
2023-05-15T18:07:59.888Z,46.64
2023-05-15T18:10:26.305Z,46.60
2023-05-15T18:12:53.030Z,46.58
2023-05-15T18:15:20.635Z,46.71
2023-05-15T18:17:47.137Z,46.55
2023-05-15T18:20:13.593Z,46.57
2023-05-15T18:22:40.971Z,46.88
2023-05-15T18:25:07.759Z,46.70
2023-05-15T18:27:34.177Z,47.08
2023-05-15T18:30:01.559Z,46.76
2023-05-15T18:32:28.225Z,46.76
2023-05-15T18:34:54.671Z,46.61
2023-05-15T18:37:21.784Z,46.79
2023-05-15T18:39:48.218Z,46.85
2023-05-15T18:42:14.862Z,46.93
2023-05-15T18:44:41.483Z,46.88
2023-05-15T18:47:08.144Z,46.97
2023-05-15T18:49:34.661Z,47.06
2023-05-15T18:52:01.182Z,47.01
2023-05-15T18:54:28.071Z,46.75
2023-05-15T18:56:54.614Z,47.09
2023-05-15T18:59:21.008Z,47.27
2023-05-15T19:01:49.096Z,46.89
2023-05-15T19:04:15.610Z,46.94
2023-05-15T19:06:43.424Z,47.24
2023-05-15T19:09:10.448Z,46.92
2023-05-15T19:11:36.912Z,46.69
2023-05-15T19:14:03.315Z,46.98
2023-05-15T19:16:29.759Z,46.65
2023-05-15T19:18:56.536Z,47.04
2023-05-15T19:21:22.984Z,47.01
2023-05-15T19:23:50.847Z,47.05
2023-05-15T19:26:17.419Z,46.95
2023-05-15T19:28:43.971Z,46.84
2023-05-15T19:31:20.404Z,46.83
2023-05-15T19:33:56.871Z,46.79
2023-05-15T19:36:23.854Z,46.60
2023-05-15T19:38:50.699Z,46.84
2023-05-15T19:41:17.154Z,46.78
2023-05-15T19:43:46.314Z,46.49
2023-05-15T19:46:13.420Z,46.85
2023-05-15T19:48:39.997Z,46.83
2023-05-15T19:51:06.439Z,46.44
2023-05-15T19:53:32.855Z,46.71
2023-05-15T19:55:59.669Z,46.64
2023-05-15T19:58:26.164Z,46.83
2023-05-15T20:00:53.778Z,46.82
2023-05-15T20:03:21.166Z,46.47
2023-05-15T20:05:48.181Z,46.72
2023-05-15T20:08:16.817Z,46.61
2023-05-15T20:10:43.246Z,46.43
2023-05-15T20:13:10.225Z,46.38
2023-05-15T20:15:39.771Z,46.74
2023-05-15T20:18:07.365Z,46.53
2023-05-15T20:20:35.719Z,46.56
2023-05-15T20:23:02.179Z,46.57
2023-05-15T20:25:29.448Z,46.73
2023-05-15T20:27:58.413Z,46.47
2023-05-15T20:30:27.131Z,46.67
2023-05-15T20:32:53.901Z,46.69
2023-05-15T20:35:20.772Z,46.70
2023-05-15T20:37:47.436Z,46.68
2023-05-15T20:40:15.698Z,46.55
2023-05-15T20:42:42.121Z,46.91
2023-05-15T20:45:09.179Z,47.01
2023-05-15T20:47:35.950Z,47.06
2023-05-15T20:50:02.672Z,46.86
2023-05-15T20:52:29.264Z,47.10
2023-05-15T20:54:55.736Z,47.08
2023-05-15T20:57:22.218Z,46.96
2023-05-15T20:59:48.622Z,47.05
2023-05-15T21:02:15.235Z,46.88
2023-05-15T21:04:41.701Z,47.27
2023-05-15T21:07:08.400Z,47.19
2023-05-15T21:09:34.891Z,47.26
2023-05-15T21:12:01.331Z,47.53
2023-05-15T21:14:27.851Z,47.24
2023-05-15T21:16:54.364Z,47.30
2023-05-15T21:19:21.614Z,47.35
2023-05-15T21:21:48.089Z,47.69
2023-05-15T21:24:14.535Z,47.55
2023-05-15T21:26:40.953Z,47.66
2023-05-15T21:29:07.436Z,47.57
2023-05-15T21:31:33.955Z,47.62
2023-05-15T21:34:00.420Z,47.74
2023-05-15T21:36:26.905Z,47.95
2023-05-15T21:38:53.298Z,47.63
2023-05-15T21:41:19.745Z,47.83
2023-05-15T21:43:46.233Z,47.76
2023-05-15T21:46:12.671Z,47.94
2023-05-15T21:48:39.094Z,48.04
2023-05-15T21:51:05.602Z,48.08
2023-05-15T21:53:32.102Z,48.05
2023-05-15T21:56:00.049Z,48.21
2023-05-15T21:58:26.648Z,48.26
2023-05-15T22:00:53.029Z,48.34
2023-05-15T22:03:20.230Z,48.40
2023-05-15T22:05:47.626Z,48.30
2023-05-15T22:08:14.074Z,48.59
2023-05-15T22:10:41.162Z,48.67
2023-05-15T22:13:08.924Z,48.62
2023-05-15T22:15:35.660Z,48.62
2023-05-15T22:18:03.836Z,48.62
2023-05-15T22:20:30.419Z,48.80
2023-05-15T22:22:56.924Z,48.83
2023-05-15T22:25:23.428Z,49.03
2023-05-15T22:27:49.969Z,48.72
2023-05-15T22:30:16.439Z,49.26
2023-05-15T22:32:42.864Z,49.10
2023-05-15T22:35:09.728Z,49.10
2023-05-15T22:37:36.596Z,49.27
2023-05-15T22:40:03.888Z,49.16
2023-05-15T22:42:30.299Z,49.20
2023-05-15T22:44:57.704Z,49.25
2023-05-15T22:47:24.954Z,49.27
2023-05-15T22:49:51.764Z,49.32
2023-05-15T22:52:18.626Z,49.39
2023-05-15T22:54:45.128Z,49.42
2023-05-15T22:57:11.565Z,49.53
2023-05-15T22:59:38.506Z,49.49
2023-05-15T23:02:05.068Z,49.54
2023-05-15T23:04:31.527Z,49.53
2023-05-15T23:06:57.946Z,49.53
2023-05-15T23:09:24.337Z,49.78
2023-05-15T23:11:50.746Z,49.74
2023-05-15T23:14:17.534Z,49.79
2023-05-15T23:16:44.440Z,49.88
2023-05-15T23:19:10.876Z,49.82
2023-05-15T23:21:37.869Z,49.82
2023-05-15T23:24:04.484Z,49.91
2023-05-15T23:26:30.926Z,49.95
2023-05-15T23:28:57.351Z,50.08
2023-05-15T23:31:23.955Z,50.18
2023-05-15T23:33:50.664Z,50.58
2023-05-15T23:36:17.088Z,50.33
2023-05-15T23:38:43.615Z,50.43
2023-05-15T23:41:10.021Z,50.43
2023-05-15T23:43:36.424Z,50.45
2023-05-15T23:46:03.014Z,50.50
2023-05-15T23:48:31.566Z,50.63
2023-05-15T23:50:58.686Z,50.70
2023-05-15T23:53:25.401Z,50.71
2023-05-15T23:55:51.850Z,50.61
2023-05-15T23:58:18.322Z,50.58
